createdAt,value
2023-02-20T00:01:32.590Z,102115.47
2023-02-20T00:04:05.901Z,102112.03
2023-02-20T00:06:38.708Z,102109.22
2023-02-20T00:09:11.681Z,102114.28
2023-02-20T00:11:46.950Z,102109.00
2023-02-20T00:14:19.752Z,102102.75
2023-02-20T00:16:52.535Z,102103.63
2023-02-20T00:19:26.558Z,102094.72
2023-02-20T00:21:59.354Z,102099.19
2023-02-20T00:24:32.227Z,102080.56
2023-02-20T00:27:06.651Z,102076.47
2023-02-20T00:29:39.391Z,102076.00
2023-02-20T00:32:12.581Z,102076.25
2023-02-20T00:34:45.388Z,102077.13
2023-02-20T00:37:19.883Z,102067.66
2023-02-20T00:39:52.663Z,102072.59
2023-02-20T00:42:26.820Z,102065.81
2023-02-20T00:44:59.599Z,102058.63
2023-02-20T00:47:32.804Z,102056.72
2023-02-20T00:50:07.530Z,102049.03
2023-02-20T00:52:40.400Z,102042.59
2023-02-20T00:55:13.857Z,102050.47
2023-02-20T00:57:48.170Z,102046.09
2023-02-20T01:00:24.542Z,102034.72
2023-02-20T01:02:57.639Z,102049.50
2023-02-20T01:05:30.499Z,102049.44
2023-02-20T01:08:04.931Z,102032.69
2023-02-20T01:10:37.887Z,102021.94
2023-02-20T01:13:12.047Z,102013.88
2023-02-20T01:15:44.936Z,102018.34
2023-02-20T01:18:18.156Z,102023.47
2023-02-20T01:20:50.977Z,102020.75
2023-02-20T01:23:23.734Z,102023.41
2023-02-20T01:25:56.522Z,102027.91
2023-02-20T01:28:30.638Z,102026.19
2023-02-20T01:31:03.473Z,102022.59
2023-02-20T01:33:41.835Z,102014.66
2023-02-20T01:36:15.064Z,102017.31
2023-02-20T01:38:48.407Z,101999.78
2023-02-20T01:41:21.384Z,101999.63
2023-02-20T01:43:56.298Z,101996.97
2023-02-20T01:46:52.445Z,101993.13
2023-02-20T01:49:34.826Z,101991.44
2023-02-20T01:52:12.763Z,101981.78
2023-02-20T01:54:50.781Z,101983.50
2023-02-20T01:57:27.196Z,101986.13
2023-02-20T02:00:06.025Z,101950.38
2023-02-20T02:02:51.014Z,101979.78
2023-02-20T02:05:25.064Z,101972.69
2023-02-20T02:08:02.182Z,101963.97
2023-02-20T02:10:51.069Z,101929.47
2023-02-20T02:13:24.222Z,101938.00
2023-02-20T02:16:13.070Z,101937.00
2023-02-20T02:18:50.969Z,101933.63
2023-02-20T02:21:58.958Z,101930.34
2023-02-20T02:25:03.589Z,101917.09
2023-02-20T02:28:21.533Z,101918.88
2023-02-20T02:31:25.146Z,101920.84
2023-02-20T02:34:47.316Z,101921.72
2023-02-20T02:37:28.506Z,101922.72
2023-02-20T02:40:05.207Z,101905.22
2023-02-20T02:42:47.695Z,101912.06
2023-02-20T02:45:28.544Z,101894.63
2023-02-20T02:48:09.625Z,101887.41
2023-02-20T02:50:46.206Z,101880.09
2023-02-20T02:53:20.823Z,101877.69
2023-02-20T02:55:53.587Z,101866.16
2023-02-20T02:58:26.489Z,101865.41
2023-02-20T03:01:03.923Z,101876.59
2023-02-20T03:03:41.907Z,101862.66
2023-02-20T03:06:22.912Z,101853.69
2023-02-20T03:09:01.110Z,101863.34
2023-02-20T03:11:37.214Z,101862.72
2023-02-20T03:14:32.070Z,101863.78
2023-02-20T03:17:10.513Z,101861.13
2023-02-20T03:19:47.968Z,101866.16
2023-02-20T03:22:25.614Z,101855.81
2023-02-20T03:25:04.841Z,101842.84
2023-02-20T03:27:45.106Z,101846.16
2023-02-20T03:30:23.317Z,101853.91
2023-02-20T03:33:21.643Z,101849.81
2023-02-20T03:36:14.649Z,101849.81
2023-02-20T03:39:08.486Z,101848.81
2023-02-20T03:42:02.657Z,101840.00
2023-02-20T03:44:38.290Z,101849.94
2023-02-20T03:47:16.711Z,101853.25
2023-02-20T03:49:53.861Z,101854.03
2023-02-20T03:52:27.994Z,101858.56
2023-02-20T03:55:00.861Z,101851.25
2023-02-20T03:57:40.148Z,101831.63
2023-02-20T04:00:17.280Z,101846.09
2023-02-20T04:03:00.966Z,101858.47
2023-02-20T04:05:41.745Z,101855.91
2023-02-20T04:08:19.654Z,101853.44
2023-02-20T04:10:56.707Z,101843.66
2023-02-20T04:13:33.674Z,101848.97
2023-02-20T04:16:09.750Z,101841.81
2023-02-20T04:18:43.688Z,101851.72
2023-02-20T04:21:23.762Z,101847.09
2023-02-20T04:24:04.925Z,101850.75
2023-02-20T04:26:38.345Z,101838.47
2023-02-20T04:29:12.992Z,101840.88
2023-02-20T04:31:46.142Z,101842.50
2023-02-20T04:34:20.186Z,101828.31
2023-02-20T04:37:04.901Z,101828.41
2023-02-20T04:39:38.512Z,101816.00
2023-02-20T04:42:12.135Z,101820.19
2023-02-20T04:44:47.414Z,101827.19
2023-02-20T04:47:20.956Z,101831.63
2023-02-20T04:49:53.805Z,101810.59
2023-02-20T04:52:29.124Z,101818.22
2023-02-20T04:55:01.919Z,101801.47
2023-02-20T04:57:35.249Z,101819.59
2023-02-20T05:00:12.591Z,101814.00
2023-02-20T05:02:45.512Z,101810.44
2023-02-20T05:05:20.993Z,101812.06
2023-02-20T05:07:56.178Z,101809.50
2023-02-20T05:10:30.549Z,101818.19
2023-02-20T05:13:04.072Z,101825.13
2023-02-20T05:15:38.253Z,101809.38
2023-02-20T05:18:11.042Z,101799.53
2023-02-20T05:23:51.073Z,101791.09
2023-02-20T05:26:23.822Z,101786.44
2023-02-20T05:28:56.632Z,101787.34
2023-02-20T05:31:30.777Z,101796.13
2023-02-20T05:34:03.867Z,101792.53
2023-02-20T05:36:36.720Z,101794.41
2023-02-20T05:39:09.528Z,101796.72
2023-02-20T05:41:42.315Z,101777.47
2023-02-20T05:44:15.137Z,101768.59
2023-02-20T05:46:49.513Z,101759.78
2023-02-20T05:49:22.767Z,101762.44
2023-02-20T05:51:57.481Z,101757.22
2023-02-20T05:54:30.418Z,101766.97
2023-02-20T05:57:03.224Z,101780.22
2023-02-20T05:59:36.022Z,101770.06
2023-02-20T06:02:10.217Z,101762.59
2023-02-20T06:04:43.156Z,101752.19
2023-02-20T06:07:15.970Z,101757.41
2023-02-20T06:09:49.664Z,101777.56
2023-02-20T06:12:22.816Z,101784.94
2023-02-20T06:14:55.957Z,101787.34
2023-02-20T06:17:30.670Z,101802.41
2023-02-20T06:20:03.500Z,101783.31
2023-02-20T06:22:36.352Z,101791.09
2023-02-20T06:25:09.366Z,101788.53
2023-02-20T06:27:42.153Z,101813.72
2023-02-20T06:30:15.419Z,101811.09
2023-02-20T06:32:49.610Z,101819.03
2023-02-20T06:35:22.421Z,101825.13
2023-02-20T06:37:55.296Z,101808.56
2023-02-20T06:40:28.601Z,101814.59
2023-02-20T06:43:01.436Z,101813.66
2023-02-20T06:45:34.331Z,101793.03
2023-02-20T06:48:08.919Z,101815.44
2023-02-20T06:50:42.445Z,101820.75
2023-02-20T06:53:16.998Z,101817.16
2023-02-20T06:55:49.810Z,101798.88
2023-02-20T06:58:22.713Z,101814.50
2023-02-20T07:00:55.592Z,101810.00
2023-02-20T07:03:29.811Z,101784.94
2023-02-20T07:06:02.579Z,101800.16
2023-02-20T07:08:35.361Z,101792.38
2023-02-20T07:11:08.462Z,101810.16
2023-02-20T07:13:49.470Z,101812.19
2023-02-20T07:16:22.635Z,101807.84
2023-02-20T07:18:57.124Z,101814.72
2023-02-20T07:21:29.901Z,101792.69
2023-02-20T07:24:02.779Z,101794.28
2023-02-20T07:26:37.202Z,101783.69
2023-02-20T07:29:10.437Z,101793.13
2023-02-20T07:31:43.344Z,101812.41
2023-02-20T07:34:17.593Z,101799.91
2023-02-20T07:36:50.387Z,101798.84
2023-02-20T07:39:23.209Z,101790.09
2023-02-20T07:41:55.996Z,101800.41
2023-02-20T07:44:49.504Z,101801.19
2023-02-20T07:47:22.540Z,101818.84
2023-02-20T07:49:56.723Z,101820.50
2023-02-20T07:52:29.620Z,101810.59
2023-02-20T07:55:02.389Z,101815.03
2023-02-20T07:57:37.248Z,101821.97
2023-02-20T08:00:11.283Z,101806.06
2023-02-20T08:02:47.673Z,101800.06
2023-02-20T08:05:22.266Z,101803.28
2023-02-20T08:07:55.568Z,101811.91
2023-02-20T08:10:29.834Z,101802.81
2023-02-20T08:13:03.258Z,101803.59
2023-02-20T08:15:36.020Z,101807.94
2023-02-20T08:18:18.700Z,101803.41
2023-02-20T08:20:57.246Z,101781.41
2023-02-20T08:23:30.421Z,101788.22
2023-02-20T08:26:04.571Z,101789.69
2023-02-20T08:28:37.752Z,101788.59
2023-02-20T08:31:15.155Z,101778.00
2023-02-20T08:33:55.713Z,101777.72
2023-02-20T08:36:30.204Z,101762.63
2023-02-20T08:39:03.924Z,101776.56
2023-02-20T08:41:43.196Z,101777.59
2023-02-20T08:44:16.495Z,101760.81
2023-02-20T08:46:50.265Z,101765.56
2023-02-20T08:49:25.626Z,101762.81
2023-02-20T08:52:03.521Z,101758.91
2023-02-20T08:54:36.309Z,101764.38
2023-02-20T08:57:09.102Z,101755.13
2023-02-20T08:59:42.030Z,101775.38
2023-02-20T09:02:18.163Z,101780.59
2023-02-20T09:04:51.929Z,101759.28
2023-02-20T09:07:26.590Z,101754.81
2023-02-20T09:09:59.703Z,101763.91
2023-02-20T09:12:32.684Z,101762.47
2023-02-20T09:15:05.721Z,101763.91
2023-02-20T09:17:38.826Z,101759.63
2023-02-20T09:20:13.183Z,101744.81
2023-02-20T09:22:47.640Z,101754.50
2023-02-20T09:25:20.956Z,101761.34
2023-02-20T09:27:53.924Z,101754.84
2023-02-20T09:30:27.352Z,101759.00
2023-02-20T09:33:00.347Z,101761.56
2023-02-20T09:35:33.193Z,101780.84
2023-02-20T09:38:07.746Z,101768.31
2023-02-20T09:40:40.748Z,101762.09
2023-02-20T09:43:31.078Z,101751.28
2023-02-20T09:46:09.296Z,101759.00
2023-02-20T09:48:55.133Z,101761.59
2023-02-20T09:51:32.342Z,101743.22
2023-02-20T09:54:10.550Z,101750.44
2023-02-20T09:56:47.165Z,101773.06
2023-02-20T09:59:23.657Z,101754.41
2023-02-20T10:02:01.257Z,101731.66
2023-02-20T10:04:45.165Z,101743.91
2023-02-20T10:07:27.288Z,101741.16
2023-02-20T10:10:11.289Z,101730.19
2023-02-20T10:12:57.629Z,101722.31
2023-02-20T10:15:39.786Z,101722.97
2023-02-20T10:18:24.254Z,101740.41
2023-02-20T10:21:02.308Z,101741.16
2023-02-20T10:23:44.372Z,101730.72
2023-02-20T10:26:23.864Z,101743.56
2023-02-20T10:29:00.441Z,101740.28
2023-02-20T10:31:39.417Z,101741.91
2023-02-20T10:34:17.602Z,101725.69
2023-02-20T10:36:56.024Z,101723.59
2023-02-20T10:39:29.970Z,101718.13
2023-02-20T10:42:11.713Z,101724.13
2023-02-20T10:44:52.802Z,101705.81
2023-02-20T10:47:31.862Z,101716.41
2023-02-20T10:50:10.633Z,101695.06
2023-02-20T10:52:49.232Z,101693.16
2023-02-20T10:55:27.391Z,101694.94
2023-02-20T10:58:06.865Z,101703.31
2023-02-20T11:00:45.248Z,101709.19
2023-02-20T11:03:24.179Z,101722.41
2023-02-20T11:06:01.941Z,101726.41
2023-02-20T11:08:34.988Z,101724.28
2023-02-20T11:11:24.347Z,101735.03
2023-02-20T11:14:01.771Z,101730.63
2023-02-20T11:16:41.460Z,101721.03
2023-02-20T11:19:20.148Z,101732.84
2023-02-20T11:21:53.731Z,101759.91
2023-02-20T11:24:35.011Z,101750.81
2023-02-20T11:27:12.487Z,101758.59
2023-02-20T11:29:54.917Z,101763.91
2023-02-20T11:32:38.390Z,101751.75
2023-02-20T11:35:29.832Z,101769.63
2023-02-20T11:38:30.853Z,101729.22
2023-02-20T11:41:15.191Z,101751.25
2023-02-20T11:44:00.876Z,101715.53
2023-02-20T11:46:35.751Z,101744.47
2023-02-20T11:49:09.992Z,101753.31
2023-02-20T11:51:44.476Z,101743.19
2023-02-20T11:54:21.095Z,101730.06
2023-02-20T11:56:56.874Z,101728.50
2023-02-20T11:59:35.337Z,101715.06
2023-02-20T12:02:22.513Z,101711.94
2023-02-20T12:05:06.919Z,101714.31
2023-02-20T12:07:45.078Z,101683.75
2023-02-20T12:10:24.974Z,101684.16
2023-02-20T12:12:58.100Z,101677.00
2023-02-20T12:15:31.238Z,101692.13
2023-02-20T12:18:25.535Z,101661.53
2023-02-20T12:21:09.310Z,101644.22
2023-02-20T12:23:54.058Z,101660.19
2023-02-20T12:26:44.920Z,101647.94
2023-02-20T12:29:33.280Z,101646.22
2023-02-20T12:32:23.205Z,101677.66
2023-02-20T12:35:19.839Z,101655.53
2023-02-20T12:38:02.024Z,101640.91
2023-02-20T12:40:48.068Z,101636.22
2023-02-20T12:43:32.511Z,101637.19
2023-02-20T12:46:10.859Z,101648.22
2023-02-20T12:49:00.027Z,101651.25
2023-02-20T12:51:44.869Z,101668.94
2023-02-20T12:54:34.876Z,101703.88
2023-02-20T12:57:16.772Z,101665.69
2023-02-20T12:59:57.832Z,101664.16
2023-02-20T13:02:42.306Z,101669.28
2023-02-20T13:05:21.467Z,101675.00
2023-02-20T13:07:57.991Z,101680.50
2023-02-20T13:10:35.018Z,101679.28
2023-02-20T13:13:11.806Z,101685.44
2023-02-20T13:15:55.112Z,101685.25
2023-02-20T13:18:38.102Z,101693.44
2023-02-20T13:21:13.192Z,101674.22
2023-02-20T13:23:50.012Z,101662.34
2023-02-20T13:26:47.273Z,101663.41
2023-02-20T13:29:23.299Z,101639.47
2023-02-20T13:31:57.908Z,101645.34
2023-02-20T13:34:36.739Z,101640.81
2023-02-20T13:37:45.044Z,101666.44
2023-02-20T13:40:41.289Z,101653.63
2023-02-20T13:43:31.417Z,101642.88
2023-02-20T13:46:14.983Z,101643.72
2023-02-20T13:48:51.092Z,101653.41
2023-02-20T13:51:35.353Z,101641.25
2023-02-20T13:54:29.731Z,101617.59
2023-02-20T13:57:17.913Z,101608.19
2023-02-20T13:59:53.615Z,101607.31
2023-02-20T14:02:30.218Z,101605.16
2023-02-20T14:05:05.319Z,101599.56
2023-02-20T14:07:40.493Z,101610.94
2023-02-20T14:10:18.057Z,101615.06
2023-02-20T14:13:00.030Z,101603.06
2023-02-20T14:15:35.188Z,101609.63
2023-02-20T14:18:16.967Z,101609.53
2023-02-20T14:20:51.550Z,101605.41
2023-02-20T14:23:28.434Z,101602.69
2023-02-20T14:26:03.551Z,101596.31
2023-02-20T14:28:46.162Z,101589.47
2023-02-20T14:31:25.228Z,101593.94
2023-02-20T14:33:59.715Z,101572.00
2023-02-20T14:36:46.896Z,101584.13
2023-02-20T14:39:46.217Z,101569.72
2023-02-20T14:42:24.006Z,101570.28
2023-02-20T14:45:02.534Z,101577.69
2023-02-20T14:47:37.536Z,101575.59
2023-02-20T14:50:21.406Z,101581.84
2023-02-20T14:53:02.570Z,101576.16
2023-02-20T14:55:35.386Z,101556.50
2023-02-20T14:58:08.674Z,101575.19
2023-02-20T15:00:44.659Z,101581.84
2023-02-20T15:03:30.345Z,101584.34
2023-02-20T15:06:07.209Z,101569.13
2023-02-20T15:08:40.242Z,101583.00
2023-02-20T15:11:16.403Z,101580.53
2023-02-20T15:13:49.375Z,101575.41
2023-02-20T15:16:26.280Z,101568.16
2023-02-20T15:18:59.423Z,101580.44
2023-02-20T15:21:38.270Z,101587.97
2023-02-20T15:24:38.435Z,101571.63
2023-02-20T15:27:14.770Z,101574.81
2023-02-20T15:29:48.749Z,101587.00
2023-02-20T15:32:25.381Z,101581.59
2023-02-20T15:34:58.481Z,101586.72
2023-02-20T15:37:39.116Z,101585.31
2023-02-20T15:40:23.914Z,101579.97
2023-02-20T15:42:58.202Z,101572.16
2023-02-20T15:45:31.972Z,101585.31
2023-02-20T15:48:07.144Z,101573.31
2023-02-20T15:50:39.909Z,101590.69
2023-02-20T15:53:18.689Z,101589.75
2023-02-20T15:55:53.143Z,101583.19
2023-02-20T15:58:32.167Z,101594.41
2023-02-20T16:01:07.597Z,101583.75
2023-02-20T16:03:51.755Z,101599.84
2023-02-20T16:06:25.659Z,101596.97
2023-02-20T16:08:58.804Z,101588.88
2023-02-20T16:11:39.144Z,101583.00
2023-02-20T16:14:15.071Z,101584.81
2023-02-20T16:16:51.943Z,101570.47
2023-02-20T16:19:40.192Z,101590.78
2023-02-20T16:22:15.151Z,101576.75
2023-02-20T16:24:48.369Z,101583.75
2023-02-20T16:27:25.266Z,101573.31
2023-02-20T16:29:59.155Z,101591.00
2023-02-20T16:32:34.111Z,101589.09
2023-02-20T16:35:13.630Z,101597.19
2023-02-20T16:37:46.949Z,101601.81
2023-02-20T16:40:19.982Z,101597.38
2023-02-20T16:42:52.790Z,101584.44
2023-02-20T16:45:25.582Z,101585.50
2023-02-20T16:47:58.724Z,101595.94
2023-02-20T16:50:34.607Z,101598.41
2023-02-20T16:53:07.437Z,101602.00
2023-02-20T16:55:41.922Z,101607.31
2023-02-20T16:58:15.188Z,101604.78
2023-02-20T17:00:57.226Z,101605.13
2023-02-20T17:03:32.189Z,101614.34
2023-02-20T17:06:06.922Z,101616.06
2023-02-20T17:08:39.826Z,101610.75
2023-02-20T17:11:12.929Z,101602.75
2023-02-20T17:13:45.932Z,101600.88
2023-02-20T17:16:30.770Z,101613.03
2023-02-20T17:19:04.310Z,101606.84
2023-02-20T17:21:38.779Z,101618.06
2023-02-20T17:24:11.831Z,101619.03
2023-02-20T17:26:45.160Z,101614.66
2023-02-20T17:29:18.320Z,101627.09
2023-02-20T17:31:51.117Z,101620.16
2023-02-20T17:34:23.999Z,101621.94
2023-02-20T17:36:58.170Z,101619.28
2023-02-20T17:39:30.958Z,101629.94
2023-02-20T17:42:04.217Z,101629.84
2023-02-20T17:44:38.309Z,101630.03
2023-02-20T17:47:11.460Z,101628.06
2023-02-20T17:49:44.951Z,101623.50
2023-02-20T17:52:19.945Z,101619.03
2023-02-20T17:54:55.153Z,101596.19
2023-02-20T17:57:28.280Z,101612.00
2023-02-20T18:00:01.158Z,101602.97
2023-02-20T18:02:34.241Z,101619.69
2023-02-20T18:05:07.824Z,101625.84
2023-02-20T18:07:42.178Z,101637.34
2023-02-20T18:10:15.016Z,101642.78
2023-02-20T18:13:02.216Z,101642.03
2023-02-20T18:15:39.308Z,101636.09
2023-02-20T18:18:15.677Z,101628.06
2023-02-20T18:20:48.543Z,101630.72
2023-02-20T18:23:22.678Z,101623.84
2023-02-20T18:25:55.738Z,101603.88
2023-02-20T18:28:28.593Z,101604.47
2023-02-20T18:31:01.534Z,101601.06
2023-02-20T18:33:34.467Z,101613.03
2023-02-20T18:36:08.916Z,101600.00
2023-02-20T18:38:43.190Z,101605.34
2023-02-20T18:41:16.246Z,101610.66
2023-02-20T18:43:50.385Z,101616.47
2023-02-20T18:46:27.658Z,101614.91
2023-02-20T18:49:02.044Z,101606.94
2023-02-20T18:51:36.999Z,101598.97
2023-02-20T18:54:16.655Z,101603.91
2023-02-20T18:56:50.791Z,101604.66
2023-02-20T18:59:23.944Z,101598.41
2023-02-20T19:01:57.670Z,101599.66
2023-02-20T19:04:32.985Z,101606.38
2023-02-20T19:07:06.651Z,101593.28
2023-02-20T19:09:40.880Z,101604.47
2023-02-20T19:12:13.699Z,101595.38
2023-02-20T19:14:47.896Z,101592.06
2023-02-20T19:17:21.209Z,101591.00
2023-02-20T19:19:53.992Z,101581.31
2023-02-20T19:22:26.826Z,101581.31
2023-02-20T19:25:01.399Z,101572.75
2023-02-20T19:27:34.323Z,101582.25
2023-02-20T19:30:08.445Z,101594.63
2023-02-20T19:32:41.853Z,101591.94
2023-02-20T19:35:16.191Z,101585.69
2023-02-20T19:37:49.329Z,101583.00
2023-02-20T19:40:23.518Z,101579.59
2023-02-20T19:42:56.849Z,101587.38
2023-02-20T19:45:29.742Z,101564.38
2023-02-20T19:48:02.796Z,101575.69
2023-02-20T19:50:36.035Z,101567.78
2023-02-20T19:53:09.099Z,101545.19
2023-02-20T19:55:43.324Z,101565.03
2023-02-20T19:58:16.350Z,101569.50
2023-02-20T20:00:49.338Z,101567.53
2023-02-20T20:03:22.167Z,101555.44
2023-02-20T20:05:54.966Z,101567.44
2023-02-20T20:08:28.792Z,101571.03
2023-02-20T20:11:03.393Z,101545.75
2023-02-20T20:13:36.604Z,101557.72
2023-02-20T20:16:09.919Z,101544.81
2023-02-20T20:18:44.677Z,101556.03
2023-02-20T20:21:17.563Z,101566.47
2023-02-20T20:23:53.922Z,101564.66
2023-02-20T20:26:29.699Z,101555.25
2023-02-20T20:29:02.909Z,101553.16
2023-02-20T20:31:38.197Z,101550.59
2023-02-20T20:34:11.227Z,101561.69
2023-02-20T20:36:44.034Z,101564.56
2023-02-20T20:39:17.381Z,101561.91
2023-02-20T20:41:51.516Z,101557.16
2023-02-20T20:44:24.631Z,101557.16
2023-02-20T20:46:57.465Z,101536.81
2023-02-20T20:49:30.451Z,101556.38
2023-02-20T20:52:03.395Z,101542.78
2023-02-20T20:54:36.281Z,101540.97
2023-02-20T20:57:10.423Z,101547.06
2023-02-20T20:59:43.229Z,101557.69
2023-02-20T21:02:17.580Z,101544.03
2023-02-20T21:04:57.942Z,101548.00
2023-02-20T21:07:41.286Z,101542.78
2023-02-20T21:10:14.286Z,101533.31
2023-02-20T21:12:48.920Z,101553.34
2023-02-20T21:15:23.145Z,101535.75
2023-02-20T21:17:56.058Z,101537.47
2023-02-20T21:20:30.684Z,101538.31
2023-02-20T21:23:04.797Z,101533.94
2023-02-20T21:25:39.092Z,101532.25
2023-02-20T21:28:13.278Z,101533.00
2023-02-20T21:30:47.531Z,101541.84
2023-02-20T21:33:20.342Z,101530.34
2023-02-20T21:35:53.114Z,101521.78
2023-02-20T21:38:26.201Z,101524.16
2023-02-20T21:40:59.067Z,101516.38
2023-02-20T21:43:50.598Z,101518.94
2023-02-20T21:46:23.381Z,101515.53
2023-02-20T21:48:56.271Z,101532.16
2023-02-20T21:51:29.061Z,101528.72
2023-02-20T21:54:01.934Z,101518.25
2023-02-20T21:56:35.088Z,101523.50
2023-02-20T21:59:09.037Z,101514.84
2023-02-20T22:01:41.122Z,101506.00
2023-02-20T22:04:14.611Z,101512.75
2023-02-20T22:07:05.803Z,101512.75
2023-02-20T22:09:56.173Z,101512.19
2023-02-20T22:12:46.503Z,101522.94
2023-02-20T22:15:38.544Z,101527.88
2023-02-20T22:18:28.909Z,101527.03
2023-02-20T22:21:19.492Z,101507.72
2023-02-20T22:24:09.831Z,101512.28
2023-02-20T22:26:59.901Z,101513.78
2023-02-20T22:29:51.019Z,101495.19
2023-02-20T22:32:43.001Z,101508.47
2023-02-20T22:35:33.829Z,101508.66
2023-02-20T22:38:23.984Z,101514.66
2023-02-20T22:41:14.475Z,101524.44
2023-02-20T22:44:05.039Z,101522.66
2023-02-20T22:46:55.678Z,101513.34
2023-02-20T22:49:47.890Z,101529.75
2023-02-20T22:52:38.661Z,101531.50
2023-02-20T22:55:30.519Z,101532.53
2023-02-20T22:58:20.738Z,101521.03
2023-02-20T23:01:11.595Z,101500.13
2023-02-20T23:04:02.600Z,101506.84
2023-02-20T23:06:54.722Z,101498.22
2023-02-20T23:09:45.344Z,101516.38
2023-02-20T23:12:35.746Z,101528.72
2023-02-20T23:15:26.808Z,101514.00
2023-02-20T23:18:17.037Z,101514.75
2023-02-20T23:21:08.121Z,101525.22
2023-02-20T23:23:59.673Z,101509.03
2023-02-20T23:26:51.489Z,101537.66
2023-02-20T23:29:42.262Z,101532.34
2023-02-20T23:32:32.603Z,101518.47
2023-02-20T23:35:23.401Z,101520.06
2023-02-20T23:38:14.216Z,101531.50
2023-02-20T23:41:05.792Z,101534.91
2023-02-20T23:43:56.181Z,101526.34
2023-02-20T23:46:46.354Z,101527.88
2023-02-20T23:49:36.642Z,101534.16
2023-02-20T23:52:27.031Z,101533.56
2023-02-20T23:55:17.194Z,101523.88
2023-02-20T23:58:09.021Z,101528.91
